createdAt,value
2023-05-05T00:01:07.962Z,100465.45
2023-05-05T00:03:35.883Z,100467.95
2023-05-05T00:06:03.066Z,100471.89
2023-05-05T00:08:30.095Z,100469.73
2023-05-05T00:10:57.079Z,100465.14
2023-05-05T00:13:24.458Z,100464.65
2023-05-05T00:15:52.066Z,100463.16
2023-05-05T00:18:19.015Z,100467.60
2023-05-05T00:20:51.760Z,100465.68
2023-05-05T00:23:18.873Z,100465.83
2023-05-05T00:25:45.653Z,100471.05
2023-05-05T00:28:15.728Z,100474.61
2023-05-05T00:30:47.579Z,100476.17
2023-05-05T00:33:15.734Z,100477.80
2023-05-05T00:35:47.779Z,100474.84
2023-05-05T00:38:14.801Z,100474.10
2023-05-05T00:40:41.848Z,100473.44
2023-05-05T00:43:08.714Z,100475.40
2023-05-05T00:45:37.049Z,100477.23
2023-05-05T00:48:04.129Z,100476.30
2023-05-05T00:50:31.865Z,100471.95
2023-05-05T00:53:04.002Z,100472.39
2023-05-05T00:55:32.318Z,100471.44
2023-05-05T00:57:59.876Z,100466.85
2023-05-05T01:00:27.556Z,100469.17
2023-05-05T01:03:00.959Z,100461.71
2023-05-05T01:05:32.214Z,100459.58
2023-05-05T01:08:18.963Z,100458.33
2023-05-05T01:11:11.941Z,100457.71
2023-05-05T01:14:09.443Z,100461.66
2023-05-05T01:16:36.819Z,100460.39
2023-05-05T01:19:32.314Z,100457.02
2023-05-05T01:22:00.290Z,100455.16
2023-05-05T01:24:54.025Z,100455.66
2023-05-05T01:27:34.665Z,100454.06
2023-05-05T01:30:28.589Z,100454.28
2023-05-05T01:32:58.919Z,100457.66
2023-05-05T01:35:31.334Z,100456.27
2023-05-05T01:38:02.586Z,100456.66
2023-05-05T01:40:33.282Z,100456.66
2023-05-05T01:43:00.173Z,100454.63
2023-05-05T01:45:29.125Z,100454.20
2023-05-05T01:47:56.005Z,100449.48
2023-05-05T01:50:22.868Z,100451.64
2023-05-05T01:52:50.178Z,100443.45
2023-05-05T01:55:22.338Z,100437.48
2023-05-05T01:57:49.480Z,100431.50
2023-05-05T02:00:17.419Z,100428.02
2023-05-05T02:02:46.060Z,100423.25
2023-05-05T02:05:13.213Z,100424.29
2023-05-05T02:07:40.429Z,100422.63
2023-05-05T02:10:08.012Z,100422.06
2023-05-05T02:12:36.089Z,100421.72
2023-05-05T02:15:03.078Z,100421.11
2023-05-05T02:17:30.155Z,100421.04
2023-05-05T02:19:58.438Z,100418.09
2023-05-05T02:22:25.809Z,100415.86
2023-05-05T02:24:53.049Z,100414.65
2023-05-05T02:27:20.335Z,100413.98
2023-05-05T02:29:52.323Z,100412.10
2023-05-05T02:32:35.987Z,100418.14
2023-05-05T02:35:15.017Z,100415.36
2023-05-05T02:37:48.252Z,100421.11
2023-05-05T02:40:15.287Z,100422.23
2023-05-05T02:42:43.010Z,100423.39
2023-05-05T02:45:12.877Z,100425.13
2023-05-05T02:47:41.689Z,100422.95
2023-05-05T02:50:09.215Z,100421.34
2023-05-05T02:52:38.244Z,100427.48
2023-05-05T02:55:05.546Z,100432.52
2023-05-05T02:57:41.155Z,100431.42
2023-05-05T03:00:21.142Z,100430.92
2023-05-05T03:03:18.412Z,100428.31
2023-05-05T03:06:19.953Z,100425.65
2023-05-05T03:08:55.098Z,100418.41
2023-05-05T03:11:28.575Z,100421.97
2023-05-05T03:14:03.985Z,100426.84
2023-05-05T03:16:31.623Z,100430.94
2023-05-05T03:18:59.086Z,100433.98
2023-05-05T03:21:26.242Z,100431.80
2023-05-05T03:23:53.019Z,100426.03
2023-05-05T03:26:20.663Z,100424.04
2023-05-05T03:28:47.706Z,100422.78
2023-05-05T03:31:21.673Z,100423.16
2023-05-05T03:33:51.860Z,100423.64
2023-05-05T03:36:20.116Z,100427.48
2023-05-05T03:38:47.535Z,100436.06
2023-05-05T03:41:14.369Z,100435.27
2023-05-05T03:43:41.254Z,100433.24
2023-05-05T03:46:09.706Z,100436.92
2023-05-05T03:48:36.849Z,100441.17
2023-05-05T03:51:04.598Z,100435.99
2023-05-05T03:53:32.849Z,100436.23
2023-05-05T03:56:05.322Z,100432.73
2023-05-05T03:58:32.777Z,100427.01
2023-05-05T04:00:59.629Z,100422.59
2023-05-05T04:03:26.642Z,100422.95
2023-05-05T04:05:53.579Z,100424.73
2023-05-05T04:08:21.240Z,100428.90
2023-05-05T04:10:48.192Z,100426.40
2023-05-05T04:13:15.862Z,100424.26
2023-05-05T04:23:09.195Z,100432.05
2023-05-05T04:25:36.836Z,100430.89
2023-05-05T04:28:04.765Z,100431.48
2023-05-05T04:30:32.776Z,100431.11
2023-05-05T04:32:59.579Z,100432.13
2023-05-05T04:35:26.438Z,100427.80
2023-05-05T04:37:54.271Z,100431.63
2023-05-05T04:40:21.221Z,100434.40
2023-05-05T04:42:54.257Z,100434.42
2023-05-05T04:45:22.725Z,100437.55
2023-05-05T04:47:49.846Z,100437.91
2023-05-05T04:50:18.200Z,100435.55
2023-05-05T04:52:45.503Z,100433.39
2023-05-05T04:55:12.369Z,100435.35
2023-05-05T04:57:39.354Z,100433.10
2023-05-05T05:00:07.982Z,100428.08
2023-05-05T05:02:37.060Z,100426.21
2023-05-05T05:05:05.108Z,100423.89
2023-05-05T05:07:32.375Z,100427.58
2023-05-05T05:09:59.406Z,100424.25
2023-05-05T05:12:26.366Z,100423.27
2023-05-05T05:14:53.572Z,100422.60
2023-05-05T05:17:20.857Z,100427.52
2023-05-05T05:19:47.765Z,100426.28
2023-05-05T05:22:14.732Z,100426.91
2023-05-05T05:24:42.667Z,100422.78
2023-05-05T05:27:10.095Z,100419.66
2023-05-05T05:29:38.514Z,100422.34
2023-05-05T05:32:06.020Z,100418.29
2023-05-05T05:34:34.054Z,100416.57
2023-05-05T05:37:06.487Z,100414.98
2023-05-05T05:39:35.945Z,100417.17
2023-05-05T05:42:03.385Z,100413.98
2023-05-05T05:44:32.282Z,100415.83
2023-05-05T05:46:59.198Z,100415.04
2023-05-05T05:49:26.474Z,100415.30
2023-05-05T05:51:53.378Z,100416.48
2023-05-05T05:54:20.298Z,100411.85
2023-05-05T05:56:47.363Z,100408.20
2023-05-05T05:59:15.473Z,100409.27
2023-05-05T06:01:42.419Z,100409.60
2023-05-05T06:04:09.371Z,100408.60
2023-05-05T06:06:37.959Z,100408.80
2023-05-05T06:09:04.851Z,100409.13
2023-05-05T06:11:34.432Z,100404.61
2023-05-05T06:14:01.777Z,100401.73
2023-05-05T06:16:29.281Z,100396.42
2023-05-05T06:18:57.001Z,100395.36
2023-05-05T06:21:23.928Z,100394.63
2023-05-05T06:23:51.853Z,100393.32
2023-05-05T06:26:18.699Z,100391.47
2023-05-05T06:28:45.570Z,100388.88
2023-05-05T06:31:13.644Z,100389.65
2023-05-05T06:33:40.655Z,100385.94
2023-05-05T06:36:07.930Z,100384.70
2023-05-05T06:38:36.193Z,100386.63
2023-05-05T06:41:03.150Z,100386.70
2023-05-05T06:43:30.676Z,100383.37
2023-05-05T06:46:00.301Z,100386.41
2023-05-05T06:48:27.517Z,100388.34
2023-05-05T06:50:56.103Z,100387.77
2023-05-05T06:53:23.021Z,100387.05
2023-05-05T06:55:50.074Z,100383.09
2023-05-05T06:58:17.129Z,100386.58
2023-05-05T07:00:43.954Z,100380.52
2023-05-05T07:03:11.173Z,100380.66
2023-05-05T07:05:38.302Z,100379.75
2023-05-05T07:08:06.265Z,100380.66
2023-05-05T07:10:33.765Z,100382.83
2023-05-05T07:13:00.878Z,100380.80
2023-05-05T07:15:29.614Z,100379.48
2023-05-05T07:17:56.998Z,100376.20
2023-05-05T07:20:24.350Z,100375.04
2023-05-05T07:22:51.644Z,100369.36
2023-05-05T07:25:18.568Z,100365.17
2023-05-05T07:27:45.747Z,100361.48
2023-05-05T07:30:15.582Z,100360.06
2023-05-05T07:32:45.259Z,100362.17
2023-05-05T07:35:12.190Z,100358.84
2023-05-05T07:37:39.031Z,100358.85
2023-05-05T07:40:06.854Z,100354.65
2023-05-05T07:42:35.376Z,100353.70
2023-05-05T07:45:02.688Z,100355.36
2023-05-05T07:47:29.787Z,100357.52
2023-05-05T07:49:57.117Z,100348.71
2023-05-05T07:52:37.418Z,100352.27
2023-05-05T07:55:11.395Z,100347.72
2023-05-05T07:57:38.810Z,100348.64
2023-05-05T08:00:06.632Z,100343.53
2023-05-05T08:02:54.204Z,100342.11
2023-05-05T08:05:21.353Z,100343.42
2023-05-05T08:07:48.393Z,100343.92
2023-05-05T08:10:15.954Z,100341.02
2023-05-05T08:12:43.028Z,100341.13
2023-05-05T08:15:10.321Z,100338.55
2023-05-05T08:17:50.925Z,100333.66
2023-05-05T08:20:18.822Z,100334.11
2023-05-05T08:22:45.908Z,100328.88
2023-05-05T08:25:13.293Z,100326.83
2023-05-05T08:27:41.135Z,100319.64
2023-05-05T08:30:08.733Z,100323.41
2023-05-05T08:32:37.943Z,100325.69
2023-05-05T08:35:05.617Z,100323.50
2023-05-05T08:37:32.788Z,100320.17
2023-05-05T08:39:59.666Z,100322.60
2023-05-05T08:42:37.122Z,100319.04
2023-05-05T08:45:07.245Z,100320.66
2023-05-05T08:47:35.520Z,100318.10
2023-05-05T08:50:05.108Z,100315.45
2023-05-05T08:52:43.348Z,100312.80
2023-05-05T08:55:17.536Z,100307.69
2023-05-05T08:57:56.983Z,100306.88
2023-05-05T09:00:26.593Z,100299.38
2023-05-05T09:02:58.202Z,100291.38
2023-05-05T09:05:25.706Z,100289.91
2023-05-05T09:07:52.623Z,100288.82
2023-05-05T09:10:19.565Z,100286.74
2023-05-05T09:12:49.011Z,100285.75
2023-05-05T09:15:15.920Z,100283.79
2023-05-05T09:17:43.742Z,100281.49
2023-05-05T09:20:11.826Z,100276.90
2023-05-05T09:22:39.423Z,100276.46
2023-05-05T09:25:11.495Z,100275.38
2023-05-05T09:27:42.760Z,100276.09
2023-05-05T09:30:10.646Z,100272.88
2023-05-05T09:32:49.631Z,100268.44
2023-05-05T09:35:17.005Z,100261.81
2023-05-05T09:37:43.978Z,100259.51
2023-05-05T09:40:12.750Z,100258.72
2023-05-05T09:42:39.929Z,100256.41
2023-05-05T09:45:19.484Z,100254.70
2023-05-05T09:47:46.517Z,100253.81
2023-05-05T09:50:17.946Z,100249.90
2023-05-05T09:52:55.497Z,100248.56
2023-05-05T09:55:23.323Z,100245.97
2023-05-05T09:57:50.233Z,100246.65
2023-05-05T10:00:17.370Z,100246.79
2023-05-05T10:02:45.160Z,100246.81
2023-05-05T10:05:13.035Z,100246.95
2023-05-05T10:07:42.351Z,100245.43
2023-05-05T10:10:13.777Z,100246.36
2023-05-05T10:12:41.544Z,100240.63
2023-05-05T10:15:09.873Z,100235.61
2023-05-05T10:17:50.964Z,100236.84
2023-05-05T10:20:29.815Z,100232.66
2023-05-05T10:22:56.676Z,100230.46
2023-05-05T10:25:30.583Z,100229.62
2023-05-05T10:27:59.212Z,100231.23
2023-05-05T10:30:29.500Z,100226.39
2023-05-05T10:33:22.299Z,100226.92
2023-05-05T10:35:52.821Z,100227.95
2023-05-05T10:38:20.222Z,100223.08
2023-05-05T10:40:47.637Z,100218.73
2023-05-05T10:43:14.812Z,100216.44
2023-05-05T10:45:41.775Z,100214.77
2023-05-05T10:48:12.425Z,100210.92
2023-05-05T10:50:44.297Z,100208.20
2023-05-05T10:53:27.592Z,100209.15
2023-05-05T10:56:10.303Z,100207.86
2023-05-05T10:58:51.087Z,100203.18
2023-05-05T11:01:32.715Z,100206.08
2023-05-05T11:04:19.481Z,100203.34
2023-05-05T11:07:09.260Z,100200.67
2023-05-05T11:09:57.362Z,100199.95
2023-05-05T11:12:24.309Z,100199.36
2023-05-05T11:15:29.060Z,100194.19
2023-05-05T11:17:59.233Z,100188.80
2023-05-05T11:20:35.606Z,100186.63
2023-05-05T11:23:02.499Z,100191.26
2023-05-05T11:25:39.977Z,100187.59
2023-05-05T11:28:07.449Z,100185.38
2023-05-05T11:30:35.492Z,100184.95
2023-05-05T11:33:30.894Z,100180.52
2023-05-05T11:35:58.306Z,100178.37
2023-05-05T11:38:47.841Z,100172.29
2023-05-05T11:41:29.900Z,100171.59
2023-05-05T11:44:09.088Z,100168.61
2023-05-05T11:46:36.180Z,100166.48
2023-05-05T11:49:03.057Z,100164.73
2023-05-05T11:51:30.482Z,100163.40
2023-05-05T11:53:59.055Z,100166.48
2023-05-05T11:56:26.074Z,100164.69
2023-05-05T11:59:09.371Z,100159.66
2023-05-05T12:01:40.419Z,100152.85
2023-05-05T12:04:11.003Z,100151.59
2023-05-05T12:06:38.716Z,100147.15
2023-05-05T12:09:06.320Z,100148.36
2023-05-05T12:11:33.180Z,100145.06
2023-05-05T12:14:09.880Z,100141.97
2023-05-05T12:16:37.345Z,100136.33
2023-05-05T12:19:07.831Z,100137.27
2023-05-05T12:21:35.156Z,100134.23
2023-05-05T12:24:02.260Z,100131.84
2023-05-05T12:26:32.235Z,100131.90
2023-05-05T12:28:59.414Z,100132.74
2023-05-05T12:31:39.151Z,100126.27
2023-05-05T12:34:07.194Z,100119.79
2023-05-05T12:36:35.461Z,100122.11
2023-05-05T12:39:04.443Z,100121.58
2023-05-05T12:41:31.797Z,100114.83
2023-05-05T12:43:59.257Z,100116.02
2023-05-05T12:46:26.196Z,100112.48
2023-05-05T12:49:04.971Z,100112.05
2023-05-05T12:51:33.473Z,100108.46
2023-05-05T12:54:04.533Z,100112.39
2023-05-05T12:56:42.002Z,100114.03
2023-05-05T12:59:10.313Z,100111.83
2023-05-05T13:01:47.966Z,100111.43
2023-05-05T13:04:14.967Z,100109.78
2023-05-05T13:06:43.531Z,100108.35
2023-05-05T13:09:26.137Z,100098.61
2023-05-05T13:11:53.891Z,100095.83
2023-05-05T13:14:21.116Z,100093.33
2023-05-05T13:16:48.133Z,100091.39
2023-05-05T13:19:15.012Z,100092.75
2023-05-05T13:21:41.845Z,100095.11
2023-05-05T13:24:25.318Z,100092.04
2023-05-05T13:26:56.002Z,100088.48
2023-05-05T13:29:25.129Z,100086.30
2023-05-05T13:31:52.938Z,100089.14
2023-05-05T13:34:19.654Z,100085.71
2023-05-05T13:36:51.522Z,100084.89
2023-05-05T13:39:18.298Z,100085.52
2023-05-05T13:41:45.124Z,100087.16
2023-05-05T13:44:13.254Z,100086.02
2023-05-05T13:46:46.195Z,100087.73
2023-05-05T13:49:13.409Z,100086.58
2023-05-05T13:51:40.480Z,100084.65
2023-05-05T13:54:07.306Z,100089.26
2023-05-05T13:56:34.457Z,100085.03
2023-05-05T13:59:01.756Z,100082.03
2023-05-05T14:01:29.147Z,100080.30
2023-05-05T14:03:57.442Z,100078.33
2023-05-05T14:06:25.283Z,100078.02
2023-05-05T14:08:52.353Z,100073.82
2023-05-05T14:11:20.189Z,100074.21
2023-05-05T14:13:47.486Z,100070.55
2023-05-05T14:16:14.251Z,100074.08
2023-05-05T14:18:41.264Z,100067.39
2023-05-05T14:21:08.200Z,100064.38
2023-05-05T14:23:35.331Z,100067.00
2023-05-05T14:26:02.196Z,100063.11
2023-05-05T14:28:29.171Z,100068.58
2023-05-05T14:30:56.153Z,100064.88
2023-05-05T14:33:23.116Z,100065.64
2023-05-05T14:35:49.929Z,100059.83
2023-05-05T14:38:16.813Z,100058.46
2023-05-05T14:40:43.766Z,100051.96
2023-05-05T14:43:10.597Z,100049.81
2023-05-05T14:45:37.529Z,100050.82
2023-05-05T14:48:04.619Z,100045.61
2023-05-05T14:50:31.557Z,100042.77
2023-05-05T14:52:58.358Z,100037.48
2023-05-05T14:55:25.560Z,100037.20
2023-05-05T14:57:52.453Z,100037.05
2023-05-05T15:00:19.290Z,100031.80
2023-05-05T15:02:47.547Z,100033.08
2023-05-05T15:05:14.448Z,100029.88
2023-05-05T15:07:41.357Z,100032.52
2023-05-05T15:10:08.674Z,100027.20
2023-05-05T15:12:35.752Z,100032.37
2023-05-05T15:15:02.827Z,100031.88
2023-05-05T15:17:31.185Z,100031.87
2023-05-05T15:19:58.349Z,100031.16
2023-05-05T15:22:25.458Z,100030.51
2023-05-05T15:24:52.655Z,100033.16
2023-05-05T15:27:19.526Z,100029.45
2023-05-05T15:29:46.377Z,100026.20
2023-05-05T15:32:13.243Z,100027.52
2023-05-05T15:34:40.292Z,100028.21
2023-05-05T15:37:07.019Z,100029.34
2023-05-05T15:39:33.981Z,100028.86
2023-05-05T15:42:04.291Z,100027.82
2023-05-05T15:44:31.316Z,100025.84
2023-05-05T15:46:58.246Z,100030.20
2023-05-05T15:49:25.118Z,100026.02
2023-05-05T15:51:51.938Z,100025.92
2023-05-05T15:54:23.829Z,100028.21
2023-05-05T15:56:50.708Z,100024.55
2023-05-05T15:59:18.607Z,100027.27
2023-05-05T16:01:46.755Z,100029.73
2023-05-05T16:04:14.161Z,100031.87
2023-05-05T16:06:40.997Z,100034.15
2023-05-05T16:09:08.175Z,100034.72
2023-05-05T16:11:36.596Z,100035.06
2023-05-05T16:14:03.508Z,100035.00
2023-05-05T16:16:30.714Z,100036.17
2023-05-05T16:18:57.628Z,100037.09
2023-05-05T16:21:25.011Z,100039.27
2023-05-05T16:23:51.946Z,100038.64
2023-05-05T16:26:18.864Z,100041.58
2023-05-05T16:28:45.645Z,100043.79
2023-05-05T16:31:13.024Z,100042.29
2023-05-05T16:33:48.128Z,100041.10
2023-05-05T16:36:15.175Z,100046.39
2023-05-05T16:38:43.114Z,100045.96
2023-05-05T16:41:11.430Z,100044.64
2023-05-05T16:43:38.526Z,100044.79
2023-05-05T16:46:07.269Z,100044.08
2023-05-05T16:48:35.243Z,100044.36
2023-05-05T16:51:02.575Z,100046.45
2023-05-05T16:53:29.593Z,100047.80
2023-05-05T16:55:56.876Z,100047.07
2023-05-05T16:58:24.277Z,100049.08
2023-05-05T17:00:51.289Z,100051.81
2023-05-05T17:03:19.721Z,100052.49
2023-05-05T17:05:49.650Z,100050.89
2023-05-05T17:08:17.039Z,100054.26
2023-05-05T17:10:44.635Z,100054.87
2023-05-05T17:13:12.547Z,100056.95
2023-05-05T17:15:40.236Z,100060.92
2023-05-05T17:18:07.934Z,100060.83
2023-05-05T17:20:36.331Z,100061.86
2023-05-05T17:23:04.449Z,100063.42
2023-05-05T17:25:32.388Z,100062.98
2023-05-05T17:28:04.520Z,100062.66
2023-05-05T17:30:32.031Z,100062.13
2023-05-05T17:33:00.217Z,100065.94
2023-05-05T17:35:27.633Z,100068.45
2023-05-05T17:37:54.725Z,100072.77
2023-05-05T17:40:24.210Z,100080.95
2023-05-05T17:42:55.034Z,100086.63
2023-05-05T17:45:26.216Z,100089.64
2023-05-05T17:47:57.319Z,100100.07
2023-05-05T17:50:27.190Z,100101.75
2023-05-05T17:52:57.232Z,100103.65
2023-05-05T17:55:30.630Z,100103.54
2023-05-05T17:58:00.250Z,100104.28
2023-05-05T18:00:30.239Z,100108.58
2023-05-05T18:03:01.363Z,100112.03
2023-05-05T18:05:37.240Z,100114.59
2023-05-05T18:08:07.256Z,100115.02
2023-05-05T18:10:37.226Z,100118.42
2023-05-05T18:13:08.329Z,100123.39
2023-05-05T18:15:40.253Z,100122.08
2023-05-05T18:18:11.322Z,100127.66
2023-05-05T18:20:43.218Z,100127.88
2023-05-05T18:23:13.753Z,100135.15
2023-05-05T18:25:49.521Z,100139.66
2023-05-05T18:28:18.048Z,100137.06
2023-05-05T18:30:49.193Z,100140.85
2023-05-05T18:33:26.056Z,100146.77
2023-05-05T18:35:57.231Z,100145.73
2023-05-05T18:38:28.308Z,100152.59
2023-05-05T18:49:12.839Z,100162.52
2023-05-05T18:51:39.758Z,100163.52
2023-05-05T18:54:11.826Z,100168.81
2023-05-05T18:56:43.803Z,100170.53
2023-05-05T18:59:11.168Z,100171.23
2023-05-05T19:01:38.222Z,100169.56
2023-05-05T19:04:08.416Z,100170.65
2023-05-05T19:06:39.901Z,100170.45
2023-05-05T19:09:06.749Z,100172.67
2023-05-05T19:11:33.686Z,100174.67
2023-05-05T19:14:02.095Z,100176.42
2023-05-05T19:16:30.141Z,100176.16
2023-05-05T19:18:59.417Z,100177.11
2023-05-05T19:21:26.978Z,100171.47
2023-05-05T19:23:59.010Z,100174.14
2023-05-05T19:26:26.423Z,100176.76
2023-05-05T19:28:58.911Z,100176.96
2023-05-05T19:31:30.187Z,100179.27
2023-05-05T19:34:04.263Z,100184.52
2023-05-05T19:36:31.565Z,100180.65
2023-05-05T19:39:01.124Z,100180.54
2023-05-05T19:41:29.157Z,100180.52
2023-05-05T19:43:56.615Z,100181.32
2023-05-05T19:46:25.941Z,100185.89
2023-05-05T19:48:52.762Z,100181.92
2023-05-05T19:51:19.622Z,100187.89
2023-05-05T19:53:46.467Z,100188.54
2023-05-05T19:56:13.383Z,100184.54
2023-05-05T19:59:01.074Z,100183.98
2023-05-05T20:01:29.298Z,100187.10
2023-05-05T20:03:56.646Z,100186.55
2023-05-05T20:06:23.691Z,100186.50
2023-05-05T20:08:50.605Z,100188.30
2023-05-05T20:11:17.704Z,100190.25
2023-05-05T20:13:45.922Z,100192.30
2023-05-05T20:16:13.192Z,100188.70
2023-05-05T20:18:40.272Z,100189.14
2023-05-05T20:21:07.055Z,100191.61
2023-05-05T20:23:36.166Z,100191.33
2023-05-05T20:26:02.935Z,100190.97
2023-05-05T20:28:33.448Z,100188.75
2023-05-05T20:31:00.791Z,100189.20
2023-05-05T20:33:28.138Z,100189.39
2023-05-05T20:35:55.046Z,100197.52
2023-05-05T20:38:22.007Z,100199.15
2023-05-05T20:40:49.552Z,100196.35
2023-05-05T20:43:17.145Z,100197.91
2023-05-05T20:45:44.082Z,100196.24
2023-05-05T20:48:10.916Z,100195.96
2023-05-05T20:50:38.710Z,100196.02
2023-05-05T20:53:14.157Z,100192.58
2023-05-05T20:55:41.129Z,100190.79
2023-05-05T20:58:07.968Z,100194.42
2023-05-05T21:00:35.821Z,100193.13
2023-05-05T21:03:04.380Z,100189.20
2023-05-05T21:05:32.447Z,100191.18
2023-05-05T21:08:01.187Z,100188.73
2023-05-05T21:10:28.675Z,100186.44
2023-05-05T21:12:55.991Z,100189.13
2023-05-05T21:15:23.349Z,100192.23
2023-05-05T21:17:50.628Z,100188.21
2023-05-05T21:20:29.211Z,100190.79
2023-05-05T21:22:56.074Z,100189.86
2023-05-05T21:25:23.288Z,100192.27
2023-05-05T21:27:50.165Z,100191.88
2023-05-05T21:30:17.486Z,100195.31
2023-05-05T21:32:44.867Z,100195.06
2023-05-05T21:35:12.078Z,100201.63
2023-05-05T21:37:38.965Z,100203.98
2023-05-05T21:40:13.007Z,100200.92
2023-05-05T21:42:40.722Z,100204.22
2023-05-05T21:45:08.478Z,100206.36
2023-05-05T21:47:35.764Z,100207.23
2023-05-05T21:50:09.128Z,100207.16
2023-05-05T21:52:36.932Z,100213.04
2023-05-05T21:55:04.132Z,100215.21
2023-05-05T21:57:31.344Z,100212.09
2023-05-05T21:59:58.166Z,100212.88
2023-05-05T22:02:25.062Z,100220.30
2023-05-05T22:04:51.975Z,100219.41
2023-05-05T22:07:18.977Z,100214.34
2023-05-05T22:09:45.980Z,100215.14
2023-05-05T22:12:13.115Z,100216.73
2023-05-05T22:14:40.223Z,100211.55
2023-05-05T22:17:07.109Z,100217.10
2023-05-05T22:19:39.028Z,100216.14
2023-05-05T22:22:06.480Z,100217.41
2023-05-05T22:24:33.644Z,100221.02
2023-05-05T22:27:01.486Z,100219.30
2023-05-05T22:29:28.704Z,100215.88
2023-05-05T22:31:55.615Z,100213.08
2023-05-05T22:34:23.368Z,100214.27
2023-05-05T22:36:50.129Z,100211.52
2023-05-05T22:39:17.983Z,100213.95
2023-05-05T22:41:44.735Z,100213.41
2023-05-05T22:44:11.876Z,100212.20
2023-05-05T22:46:38.664Z,100214.25
2023-05-05T22:49:06.153Z,100211.80
2023-05-05T22:51:34.207Z,100211.20
2023-05-05T22:54:01.352Z,100212.80
2023-05-05T22:56:28.329Z,100213.84
2023-05-05T22:58:55.256Z,100209.31
2023-05-05T23:01:22.111Z,100208.00
2023-05-05T23:03:49.168Z,100215.00
2023-05-05T23:06:16.255Z,100217.70
2023-05-05T23:08:43.095Z,100218.52
2023-05-05T23:11:11.125Z,100220.55
2023-05-05T23:13:38.042Z,100222.98
2023-05-05T23:16:05.357Z,100221.00
2023-05-05T23:18:33.037Z,100226.67
2023-05-05T23:20:59.968Z,100224.73
2023-05-05T23:23:26.865Z,100226.12
2023-05-05T23:25:53.672Z,100221.80
2023-05-05T23:28:25.935Z,100225.67
2023-05-05T23:30:53.095Z,100229.20
2023-05-05T23:33:19.929Z,100227.04
2023-05-05T23:35:47.058Z,100228.64
2023-05-05T23:38:14.513Z,100233.24
2023-05-05T23:40:41.362Z,100233.63
2023-05-05T23:43:08.283Z,100231.20
2023-05-05T23:45:35.169Z,100235.94
2023-05-05T23:48:02.319Z,100237.73
2023-05-05T23:50:29.912Z,100236.13
2023-05-05T23:52:56.752Z,100237.17
2023-05-05T23:55:23.785Z,100233.63
2023-05-05T23:57:52.835Z,100235.37
